Terminal Aerodrome Forecast
Issued by NWS

Home | Current Version | Previous Version | Text Only | Print | Product List | Glossary On
Versions: 1 2 3 4 5 6 7 8 9 10 11 12
000
FTPQ31 PGUM 231120
TAFGUM
TAF

TAF
PGSN 231120Z 2312/2412 06011KT P6SM VCSH FEW020 SCT050
      TEMPO 2312/2316 SCT018 BKN040
     FM232300 06014G22KT P6SM VCSH SCT020 SCT050=

USA.gov is the U.S. government's official web portal to all federal, state and local government web resources and services.